Terminal Aerodrome Forecast
Issued by NWS Sioux Falls, SD

Home | Current Version | Previous Version | Text Only | Print | Product List | Glossary On
Versions: 1 2 3 4 5 6 7 8 9 10 11 12 13 14
000
FTUS43 KFSD 210520
TAFFSD
TAF
KFSD 210520Z 2106/2206 VRB03KT P6SM SKC
     FM211000 12006KT P6SM SKC
     FM211600 16014KT P6SM SKC=

USA.gov is the U.S. government's official web portal to all federal, state and local government web resources and services.